Time;durP1;ratioP1;P1;durP2;ratioP2;P2;SDS_P1;SDS_P2;PMS_P1;PMS_P2;Temp;Humidity;BMP_temperature;BMP_pressure;BME280_temperature;BME280_humidity;BME280_pressure;Samples;Min_cycle;Max_cycle;Signal;HPM_P1;HPM_P2
2023/06/03 00:00:41;;;;;;;10.40;5.93;;;;;;;18.68;98.04;94590.41;5016583;28;20519;-81
2023/06/03 00:03:11;;;;;;;6.93;5.20;;;;;;;18.65;98.36;94590.78;5051882;28;21024;-81
2023/06/03 00:05:38;;;;;;;8.67;5.50;;;;;;;18.56;97.83;94588.19;5051456;28;20491;-81
2023/06/03 00:08:07;;;;;;;9.00;7.50;;;;;;;18.51;97.20;94587.13;5051655;28;20506;-81
2023/06/03 00:10:33;;;;;;;7.83;6.80;;;;;;;18.52;97.57;94586.94;5051829;28;20857;-81
2023/06/03 00:13:00;;;;;;;7.20;6.50;;;;;;;18.54;98.30;94573.47;5051746;28;20442;-81
2023/06/03 00:15:27;;;;;;;7.33;6.63;;;;;;;18.51;98.17;94569.34;5051791;28;20503;-81
2023/06/03 00:17:54;;;;;;;7.10;6.40;;;;;;;18.48;98.80;94561.72;5051530;28;20443;-81
2023/06/03 00:20:20;;;;;;;8.60;5.67;;;;;;;18.49;99.31;94560.69;5051517;28;20448;-81
2023/06/03 00:22:48;;;;;;;6.60;5.70;;;;;;;18.45;99.23;94558.59;5051818;28;20865;-81
2023/06/03 00:25:16;;;;;;;7.20;6.10;;;;;;;18.29;99.38;94540.25;5051460;28;20484;-81
2023/06/03 00:27:43;;;;;;;6.30;5.67;;;;;;;18.28;99.04;94550.03;5051662;28;20447;-81
2023/06/03 00:30:10;;;;;;;4.97;4.50;;;;;;;18.27;98.69;94540.44;5051344;28;20493;-81
2023/06/03 00:32:37;;;;;;;6.20;5.70;;;;;;;18.23;97.83;94545.28;5051511;28;20459;-81
2023/06/03 00:35:04;;;;;;;7.00;5.80;;;;;;;18.24;97.23;94549.59;5051635;28;20450;-81
2023/06/03 00:37:31;;;;;;;6.03;5.50;;;;;;;18.24;96.64;94556.75;5051759;28;20448;-81
2023/06/03 00:39:58;;;;;;;6.03;5.47;;;;;;;18.22;96.04;94554.28;5016301;28;20439;-81
2023/06/03 00:42:26;;;;;;;6.17;5.37;;;;;;;18.22;95.92;94543.66;5051402;28;20448;-81
2023/06/03 00:44:52;;;;;;;9.00;5.53;;;;;;;18.25;95.75;94547.75;5051182;28;20786;-81
2023/06/03 00:47:21;;;;;;;6.30;5.80;;;;;;;18.26;95.88;94544.09;5052521;28;20810;-82
2023/06/03 00:49:48;;;;;;;5.87;5.27;;;;;;;18.27;95.80;94543.09;5055582;28;20541;-81
2023/06/03 00:52:17;;;;;;;5.40;4.90;;;;;;;18.25;96.93;94542.44;5054918;28;20449;-81
2023/06/03 00:54:44;;;;;;;9.57;7.37;;;;;;;18.16;98.31;94538.22;5055106;28;20451;-81
2023/06/03 00:57:11;;;;;;;7.83;6.00;;;;;;;18.09;99.24;94532.00;5054821;28;20451;-81
2023/06/03 00:59:39;;;;;;;8.87;5.57;;;;;;;18.05;100.00;94530.75;5019547;28;20504;-81
2023/06/03 01:02:06;;;;;;;4.90;4.50;;;;;;;18.04;100.00;94529.91;5055037;28;20447;-81
2023/06/03 01:04:33;;;;;;;7.10;6.40;;;;;;;18.07;100.00;94528.72;5054853;28;20453;-81
2023/06/03 01:07:13;;;;;;;6.60;6.00;;;;;;;18.09;100.00;94524.03;5054558;28;21045;-81
2023/06/03 01:09:51;;;;;;;8.00;5.97;;;;;;;18.08;100.00;94527.72;5054426;28;20989;-81
2023/06/03 01:12:23;;;;;;;5.67;5.17;;;;;;;18.13;98.97;94533.28;5054463;28;20505;-81
2023/06/03 01:14:56;;;;;;;6.70;5.90;;;;;;;18.14;99.28;94534.94;5054758;28;20934;-81
2023/06/03 01:17:27;;;;;;;6.00;5.40;;;;;;;18.14;99.34;94530.44;5054549;28;20525;-81
2023/06/03 01:19:56;;;;;;;7.07;6.17;;;;;;;18.17;98.64;94535.38;5054422;28;20927;-81
2023/06/03 01:22:24;;;;;;;10.93;5.23;;;;;;;18.17;98.01;94537.22;5054482;28;20448;-81
2023/06/03 01:25:03;;;;;;;6.43;5.83;;;;;;;18.15;97.75;94537.41;5054516;28;20470;-81
2023/06/03 01:27:29;;;;;;;6.43;5.77;;;;;;;18.16;97.52;94532.91;5054637;28;20469;-81
2023/06/03 01:29:56;;;;;;;6.17;5.50;;;;;;;18.17;96.69;94535.38;5054532;28;20456;-81
2023/06/03 01:32:24;;;;;;;7.10;6.47;;;;;;;18.21;96.65;94531.38;5054632;28;20567;-81
2023/06/03 01:34:51;;;;;;;7.13;6.43;;;;;;;18.23;96.36;94529.34;5054052;28;20868;-81
2023/06/03 01:37:18;;;;;;;6.37;5.53;;;;;;;18.23;96.21;94531.19;5054309;28;20449;-81
2023/06/03 01:39:45;;;;;;;7.40;6.30;;;;;;;18.28;95.78;94536.75;5054268;28;20510;-81
2023/06/03 01:42:13;;;;;;;7.37;5.80;;;;;;;18.28;95.54;94544.72;5054112;28;20433;-82
2023/06/03 01:44:41;;;;;;;7.57;5.90;;;;;;;18.30;96.41;94536.56;5054341;28;21014;-81
2023/06/03 01:47:10;;;;;;;12.33;6.13;;;;;;;18.31;96.35;94546.19;5053700;28;20488;-81
2023/06/03 01:49:37;;;;;;;7.40;6.70;;;;;;;18.31;96.14;94546.19;5053672;28;20440;-81
2023/06/03 01:52:04;;;;;;;8.50;6.53;;;;;;;18.33;96.01;94536.19;5053691;28;20874;-81
2023/06/03 01:54:31;;;;;;;8.30;6.40;;;;;;;18.33;95.52;94545.00;5053973;28;20447;-81
2023/06/03 01:56:58;;;;;;;8.70;5.60;;;;;;;18.35;95.85;94545.63;5053975;28;20448;-81
2023/06/03 01:59:26;;;;;;;5.73;5.23;;;;;;;18.37;94.92;94548.91;5018368;28;20436;-81
2023/06/03 02:01:54;;;;;;;11.50;5.33;;;;;;;18.38;94.81;94557.72;5053801;28;20980;-81
2023/06/03 02:04:20;;;;;;;6.23;5.63;;;;;;;18.35;94.99;94558.91;5053535;28;20450;-81
2023/06/03 02:06:50;;;;;;;6.03;5.43;;;;;;;18.33;95.14;94558.28;5053638;28;20485;-81
2023/06/03 02:09:17;;;;;;;6.63;5.53;;;;;;;18.29;94.88;94559.66;5053905;28;20452;-81
2023/06/03 02:11:44;;;;;;;6.40;5.80;;;;;;;18.10;95.08;94562.88;5053688;28;20447;-82
2023/06/03 02:14:12;;;;;;;8.73;6.73;;;;;;;18.04;96.12;94561.78;5053226;28;20536;-81
2023/06/03 02:16:41;;;;;;;12.13;6.70;;;;;;;18.03;96.65;94565.44;5053255;28;20531;-81
2023/06/03 02:19:12;;;;;;;6.80;5.80;;;;;;;18.02;97.29;94562.97;5053514;28;20541;-81
2023/06/03 02:21:40;;;;;;;7.00;6.30;;;;;;;18.04;97.21;94558.31;5053315;28;20481;-81
2023/06/03 02:24:08;;;;;;;6.13;5.63;;;;;;;18.04;97.15;94558.31;5053280;28;20512;-81
2023/06/03 02:26:35;;;;;;;6.83;6.07;;;;;;;18.04;97.49;94561.78;5052904;28;20533;-81
2023/06/03 02:29:02;;;;;;;9.90;6.50;;;;;;;18.03;97.75;94561.97;5053118;28;20498;-81
2023/06/03 02:31:29;;;;;;;6.30;5.70;;;;;;;18.02;98.00;94566.44;5052904;28;20848;-82
2023/06/03 02:33:57;;;;;;;8.97;6.30;;;;;;;18.03;97.91;94564.63;5034587;28;20447;-81
2023/06/03 02:36:24;;;;;;;9.37;6.10;;;;;;;18.03;97.97;94568.09;5053187;28;20505;-81
2023/06/03 02:38:51;;;;;;;6.23;5.63;;;;;;;18.05;97.62;94583.84;5053170;28;20456;-81
2023/06/03 02:41:18;;;;;;;7.10;6.40;;;;;;;18.02;97.97;94578.91;5053312;28;20444;-81
2023/06/03 02:43:44;;;;;;;10.27;6.80;;;;;;;18.01;98.06;94580.75;5052899;28;20524;-81
2023/06/03 02:46:11;;;;;;;8.53;6.90;;;;;;;18.00;98.34;94576.44;5052470;28;20569;-81
2023/06/03 02:48:38;;;;;;;9.03;7.03;;;;;;;18.04;98.37;94587.50;5053083;28;20445;-81
2023/06/03 02:51:07;;;;;;;9.43;7.00;;;;;;;18.01;97.93;94586.03;5052922;28;20446;-81
2023/06/03 02:53:33;;;;;;;6.93;6.20;;;;;;;17.98;98.35;94593.56;5052714;28;20470;-81
2023/06/03 02:56:00;;;;;;;6.50;5.90;;;;;;;17.98;98.72;94589.06;5052667;28;20498;-81
2023/06/03 02:58:27;;;;;;;8.23;6.53;;;;;;;18.00;98.78;94597.69;5017456;28;20493;-81
2023/06/03 03:00:54;;;;;;;12.47;7.40;;;;;;;18.01;99.08;94595.84;5053033;28;20429;-81
2023/06/03 03:03:21;;;;;;;6.43;5.93;;;;;;;18.01;98.86;94593.19;5052834;28;20444;-81
2023/06/03 03:05:48;;;;;;;7.10;6.40;;;;;;;18.01;99.14;94599.31;5052311;28;20916;-81
2023/06/03 03:08:16;;;;;;;7.00;6.10;;;;;;;18.07;99.18;94603.06;5052533;28;20449;-81
2023/06/03 03:10:43;;;;;;;7.30;6.57;;;;;;;18.14;99.00;94606.63;5051908;28;20447;-81
2023/06/03 03:13:10;;;;;;;7.77;6.00;;;;;;;18.15;98.67;94608.28;5052363;28;20450;-81
2023/06/03 03:15:37;;;;;;;6.97;6.37;;;;;;;18.11;98.51;94605.19;5052386;28;20446;-81
2023/06/03 03:18:03;;;;;;;6.07;5.43;;;;;;;18.08;98.69;94610.84;5052544;28;20960;-81
2023/06/03 03:20:30;;;;;;;7.50;5.90;;;;;;;18.06;98.49;94612.03;5052069;28;20451;-81
2023/06/03 03:22:57;;;;;;;7.93;6.00;;;;;;;18.07;98.44;94608.38;5052203;28;20501;-81
2023/06/03 03:25:26;;;;;;;7.30;6.60;;;;;;;18.09;98.47;94611.69;5052004;28;20502;-82
2023/06/03 03:27:53;;;;;;;8.77;7.30;;;;;;;18.08;98.74;94616.16;5052427;28;20499;-81
2023/06/03 03:30:20;;;;;;;7.17;5.93;;;;;;;18.14;98.81;94620.75;5052193;28;20494;-81
2023/06/03 03:32:47;;;;;;;6.33;5.73;;;;;;;18.20;98.44;94620.00;5052182;28;20448;-81
2023/06/03 03:35:15;;;;;;;7.27;6.57;;;;;;;18.27;98.15;94625.44;5051937;28;20441;-81
2023/06/03 03:37:44;;;;;;;7.53;6.27;;;;;;;18.30;97.65;94626.88;5051961;28;20456;-81
2023/06/03 03:40:19;;;;;;;9.73;6.70;;;;;;;18.33;97.56;94624.69;5052043;28;20828;-81
2023/06/03 03:42:52;;;;;;;6.23;5.63;;;;;;;18.36;97.43;94634.13;5017165;28;20529;-81
2023/06/03 03:45:21;;;;;;;9.80;6.40;;;;;;;18.34;97.09;94631.66;5052004;28;20860;-81
2023/06/03 03:47:50;;;;;;;7.68;6.88;;;;;;;18.34;97.03;94629.00;5051271;28;20452;-81
2023/06/03 03:50:39;;;;;;;10.70;7.83;;;;;;;18.34;96.20;94636.97;5052086;28;20299;-81
2023/06/03 03:53:07;;;;;;;7.53;5.70;;;;;;;18.30;96.20;94635.69;5051938;28;20863;-81
2023/06/03 03:55:38;;;;;;;6.90;5.57;;;;;;;18.32;95.96;94636.31;5016879;28;20502;-81
2023/06/03 03:58:15;;;;;;;13.60;5.90;;;;;;;18.29;96.16;94636.69;5051826;28;20437;-81
2023/06/03 04:00:43;;;;;;;11.33;6.30;;;;;;;18.31;96.43;94640.00;5019046;28;20541;-82
2023/06/03 04:03:10;;;;;;;6.77;6.07;;;;;;;18.30;96.39;94637.50;5051731;28;20444;-81
2023/06/03 04:05:37;;;;;;;8.03;5.77;;;;;;;18.30;96.57;94637.50;5016768;28;20501;-81
2023/06/03 04:08:04;;;;;;;6.97;5.93;;;;;;;18.30;96.64;94642.84;5051812;28;20451;-82
2023/06/03 04:10:31;;;;;;;8.50;5.90;;;;;;;18.33;96.37;94645.13;5052078;28;20452;-81
2023/06/03 04:12:58;;;;;;;9.90;6.00;;;;;;;18.31;96.24;94647.97;5051773;28;20448;-81
2023/06/03 04:15:33;;;;;;;9.83;7.47;;;;;;;18.34;96.50;94641.44;5051702;28;20484;-81
2023/06/03 04:18:00;;;;;;;8.23;6.37;;;;;;;18.34;96.53;94642.28;5051927;28;20445;-81
2023/06/03 04:20:42;;;;;;;8.90;6.10;;;;;;;18.35;96.39;94645.75;5051591;28;20453;-81
2023/06/03 04:23:14;;;;;;;13.87;7.77;;;;;;;18.38;96.85;94646.22;4992505;28;20447;-82
2023/06/03 04:25:43;;;;;;;8.67;6.30;;;;;;;18.39;96.43;94645.19;4993926;28;20447;-82
2023/06/03 04:28:10;;;;;;;9.03;6.17;;;;;;;18.38;96.46;94646.22;4993783;28;20456;-81
2023/06/03 04:30:38;;;;;;;8.10;5.60;;;;;;;18.38;96.08;94648.88;4993832;28;20942;-81
2023/06/03 04:33:06;;;;;;;9.77;6.70;;;;;;;18.37;96.48;94646.41;4945358;28;21055;-81
2023/06/03 04:35:33;;;;;;;7.83;5.97;;;;;;;18.39;96.42;94639.88;4993641;28;20504;-81
2023/06/03 04:38:00;;;;;;;8.30;6.07;;;;;;;18.42;96.56;94646.66;4961039;28;20931;-82
2023/06/03 04:40:27;;;;;;;6.40;5.73;;;;;;;18.44;96.13;94637.50;4993747;28;20443;-81
2023/06/03 04:42:55;;;;;;;9.53;7.20;;;;;;;18.51;95.74;94649.06;4993296;28;20925;-81
2023/06/03 04:45:23;;;;;;;6.43;5.93;;;;;;;18.56;95.57;94645.84;4993491;28;20489;-82
2023/06/03 04:47:56;;;;;;;7.10;6.17;;;;;;;18.60;95.55;94647.13;4993388;28;20585;-82
2023/06/03 04:50:24;;;;;;;11.80;6.23;;;;;;;18.67;95.40;94647.22;4993377;28;20447;-81
2023/06/03 04:52:51;;;;;;;6.90;6.30;;;;;;;18.72;95.51;94652.81;4993429;28;20451;-81
2023/06/03 04:55:17;;;;;;;6.73;6.07;;;;;;;18.81;95.49;94647.22;4993146;28;20457;-82
2023/06/03 04:57:45;;;;;;;6.77;5.70;;;;;;;18.90;94.98;94647.94;4993345;28;20456;-81
2023/06/03 05:00:16;;;;;;;6.93;5.33;;;;;;;18.98;94.87;94646.97;5017362;28;20955;-81
2023/06/03 05:02:44;;;;;;;8.40;6.07;;;;;;;19.06;93.95;94649.53;5054640;28;20875;-82
2023/06/03 05:05:12;;;;;;;7.60;6.20;;;;;;;19.12;93.31;94660.25;5054407;28;20452;-81
2023/06/03 05:07:39;;;;;;;7.40;6.60;;;;;;;19.21;92.55;94665.44;5054416;28;20581;-81
2023/06/03 05:10:07;;;;;;;7.07;6.37;;;;;;;19.29;91.98;94667.97;5054570;28;20508;-81
2023/06/03 05:12:34;;;;;;;6.73;6.03;;;;;;;19.34;91.50;94657.59;5035816;28;20460;-82
2023/06/03 05:15:01;;;;;;;9.60;5.90;;;;;;;19.39;91.12;94668.53;5054996;28;20484;-81
2023/06/03 05:17:27;;;;;;;6.73;5.90;;;;;;;19.43;90.77;94669.78;5054504;28;20452;-81
2023/06/03 05:19:54;;;;;;;6.73;6.13;;;;;;;19.50;89.93;94670.66;5054384;28;20519;-82
2023/06/03 05:22:22;;;;;;;9.07;5.53;;;;;;;19.58;89.23;94675.88;5054033;28;20444;-81
2023/06/03 05:24:49;;;;;;;10.57;6.00;;;;;;;19.66;89.10;94673.13;5035705;28;20445;-81
2023/06/03 05:27:16;;;;;;;8.60;5.50;;;;;;;19.71;88.45;94676.03;5054032;28;20485;-81
2023/06/03 05:29:43;;;;;;;8.07;6.83;;;;;;;19.80;88.42;94674.88;5054629;28;20513;-81
2023/06/03 05:32:09;;;;;;;7.13;5.97;;;;;;;19.91;88.24;94683.34;5054538;28;20451;-81
2023/06/03 05:34:36;;;;;;;7.70;6.00;;;;;;;20.01;87.47;94687.34;5018701;28;20442;-82
2023/06/03 05:37:03;;;;;;;6.73;6.00;;;;;;;20.11;86.44;94689.66;5054200;28;20441;-82
2023/06/03 05:39:31;;;;;;;7.60;5.90;;;;;;;20.20;84.82;94696.47;5035206;28;20493;-81
2023/06/03 05:41:58;;;;;;;15.47;6.63;;;;;;;20.31;86.09;94695.97;5054173;28;20508;-82
2023/06/03 05:44:25;;;;;;;7.87;7.07;;;;;;;20.24;83.89;94694.25;5053760;28;20889;-81
2023/06/03 05:46:51;;;;;;;7.03;6.43;;;;;;;20.31;84.61;94687.97;5053901;28;21007;-81
2023/06/03 05:49:21;;;;;;;7.60;6.80;;;;;;;20.40;84.71;94699.34;5018870;28;20512;-81
2023/06/03 05:51:48;;;;;;;6.03;5.50;;;;;;;20.50;83.92;94697.13;5054074;28;20504;-82
2023/06/03 05:54:15;;;;;;;7.37;6.67;;;;;;;20.43;81.81;94693.59;5053995;28;20445;-81
2023/06/03 05:56:43;;;;;;;7.03;6.23;;;;;;;20.43;82.53;94685.59;5053921;28;20498;-81
2023/06/03 05:59:10;;;;;;;11.70;6.50;;;;;;;20.30;82.79;94683.66;5053738;28;20439;-82
2023/06/03 06:01:36;;;;;;;8.60;6.57;;;;;;;20.41;84.01;94685.81;5054036;28;20502;-81
2023/06/03 06:04:03;;;;;;;7.33;6.63;;;;;;;20.47;84.02;94688.69;5053898;28;20446;-81
2023/06/03 06:06:30;;;;;;;8.33;5.77;;;;;;;20.57;83.83;94678.53;5053536;28;20450;-82
2023/06/03 06:08:57;;;;;;;9.60;6.33;;;;;;;20.75;83.92;94686.00;5053481;28;20524;-82
2023/06/03 06:11:23;;;;;;;6.70;6.00;;;;;;;20.85;82.43;94687.31;5053510;28;20469;-82
2023/06/03 06:13:52;;;;;;;13.30;6.20;;;;;;;20.97;82.00;94692.88;5053230;28;20447;-81
2023/06/03 06:16:18;;;;;;;7.37;5.17;;;;;;;21.01;80.67;94697.63;5018296;28;20492;-81
2023/06/03 06:18:45;;;;;;;6.67;6.03;;;;;;;21.02;80.81;94693.94;5053342;28;20453;-80
2023/06/03 06:21:14;;;;;;;6.80;6.00;;;;;;;20.90;78.68;94694.69;5053219;28;20448;-82
2023/06/03 06:23:42;;;;;;;7.20;6.30;;;;;;;20.89;79.68;94695.72;5053120;28;21006;-82
2023/06/03 06:26:08;;;;;;;7.70;5.73;;;;;;;20.54;78.20;94692.25;5053103;28;20440;-82
2023/06/03 06:28:35;;;;;;;8.17;6.03;;;;;;;20.65;79.79;94683.69;5053144;28;21063;-82
2023/06/03 06:31:05;;;;;;;7.30;5.60;;;;;;;20.65;79.78;94675.69;5052717;28;20455;-81
2023/06/03 06:33:35;;;;;;;5.53;5.13;;;;;;;20.67;79.10;94674.47;5053214;28;20550;-82
2023/06/03 06:36:02;;;;;;;5.83;5.33;;;;;;;20.72;79.48;94676.53;5053325;28;20455;-82
2023/06/03 06:38:29;;;;;;;8.93;4.73;;;;;;;20.86;80.31;94682.78;5052951;28;20436;-82
2023/06/03 06:40:56;;;;;;;9.93;6.40;;;;;;;20.98;80.78;94681.19;5052602;28;21011;-82
2023/06/03 06:43:25;;;;;;;10.33;6.30;;;;;;;21.07;82.21;94679.16;5052476;28;20876;-82
2023/06/03 06:45:55;;;;;;;8.10;7.30;;;;;;;21.15;82.08;94679.00;5052404;28;20449;-82
2023/06/03 06:48:24;;;;;;;7.63;6.80;;;;;;;21.26;82.36;94676.59;5052739;28;20486;-82
2023/06/03 06:50:53;;;;;;;6.50;5.90;;;;;;;21.36;81.37;94684.22;5052863;28;20443;-82
2023/06/03 06:53:22;;;;;;;8.60;5.90;;;;;;;21.41;79.43;94687.13;5017080;28;20524;-82
2023/06/03 06:55:50;;;;;;;6.63;5.80;;;;;;;21.46;78.54;94684.66;5052656;28;20527;-82
2023/06/03 06:58:18;;;;;;;9.50;6.43;;;;;;;21.53;78.87;94693.50;5052756;28;20522;-82
2023/06/03 07:00:45;;;;;;;6.33;5.73;;;;;;;21.57;79.04;94692.06;5052476;28;20873;-82
2023/06/03 07:03:14;;;;;;;6.97;5.80;;;;;;;21.64;79.11;94695.56;5052296;28;20923;-81
2023/06/03 07:05:43;;;;;;;5.77;5.27;;;;;;;21.72;79.02;94702.59;5052793;28;20908;-82
2023/06/03 07:08:11;;;;;;;6.10;5.50;;;;;;;21.79;78.35;94706.09;5052248;28;20488;-82
2023/06/03 07:10:38;;;;;;;6.03;5.53;;;;;;;21.81;78.05;94703.22;5052743;28;20476;-82
2023/06/03 07:13:07;;;;;;;6.23;5.70;;;;;;;21.73;77.68;94701.56;5052233;28;20451;-82
2023/06/03 07:15:34;;;;;;;6.40;5.80;;;;;;;21.61;77.09;94693.31;5052606;28;20457;-81
2023/06/03 07:18:00;;;;;;;8.00;5.83;;;;;;;21.64;77.12;94700.91;5052228;28;20443;-82
2023/06/03 07:20:33;;;;;;;6.50;5.77;;;;;;;21.66;78.45;94706.06;5052047;28;20447;-82
2023/06/03 07:23:02;;;;;;;9.07;6.07;;;;;;;21.67;77.58;94701.53;5051976;28;20453;-82
2023/06/03 07:25:36;;;;;;;6.07;5.47;;;;;;;21.67;77.29;94706.88;5052209;28;20497;-81
2023/06/03 07:28:09;;;;;;;6.87;5.23;;;;;;;21.58;76.58;94709.75;5052003;28;20560;-82
2023/06/03 07:30:37;;;;;;;9.07;6.03;;;;;;;21.59;75.52;94715.91;5051943;28;20452;-82
2023/06/03 07:33:05;;;;;;;10.80;5.80;;;;;;;21.46;74.93;94710.53;5052078;28;20526;-82
2023/06/03 07:35:34;;;;;;;11.83;7.20;;;;;;;21.43;76.55;94716.28;5051833;28;20963;-82
2023/06/03 07:38:03;;;;;;;8.60;7.60;;;;;;;21.31;74.87;94729.38;5052417;28;20446;-82
2023/06/03 07:40:40;;;;;;;6.13;5.53;;;;;;;21.23;73.90;94730.38;5051996;28;20859;-82
2023/06/03 07:43:07;;;;;;;7.33;5.83;;;;;;;21.28;76.04;94730.59;5051843;28;20973;-82
2023/06/03 07:45:35;;;;;;;7.10;6.10;;;;;;;21.29;75.21;94734.09;5052039;28;20540;-81
2023/06/03 07:48:03;;;;;;;7.37;5.80;;;;;;;21.36;73.03;94742.13;5051668;28;20572;-83
2023/06/03 07:50:31;;;;;;;7.00;6.30;;;;;;;21.35;75.07;94741.28;5052110;28;20551;-81
2023/06/03 07:53:01;;;;;;;7.87;5.97;;;;;;;21.29;74.56;94739.44;5052030;28;20444;-82
2023/06/03 07:55:34;;;;;;;6.30;5.70;;;;;;;21.20;74.64;94732.59;5052006;28;20527;-80
2023/06/03 07:58:01;;;;;;;9.40;7.00;;;;;;;21.29;76.48;94744.78;5057466;28;20448;-80
2023/06/03 08:00:28;;;;;;;8.67;6.00;;;;;;;21.33;76.27;94741.50;5056176;28;20474;-82
2023/06/03 08:02:55;;;;;;;7.83;7.03;;;;;;;21.42;75.41;94747.50;5056196;28;20467;-82
2023/06/03 08:05:35;;;;;;;7.73;5.77;;;;;;;21.48;76.64;94748.53;5055883;28;20444;-82
2023/06/03 08:08:04;;;;;;;5.90;5.30;;;;;;;21.52;76.04;94745.28;5023639;28;21040;-82
2023/06/03 08:10:34;;;;;;;9.60;6.30;;;;;;;21.50;77.50;94744.66;5055598;28;20503;-82
2023/06/03 08:13:01;;;;;;;8.40;6.43;;;;;;;21.60;76.02;94753.09;5055573;28;20452;-82
2023/06/03 08:15:31;;;;;;;7.20;6.00;;;;;;;21.72;75.42;94749.84;5056058;28;20534;-81
2023/06/03 08:17:58;;;;;;;8.20;6.70;;;;;;;21.87;76.40;94751.31;5056041;28;20453;-81
2023/06/03 08:20:26;;;;;;;8.57;6.53;;;;;;;21.93;73.39;94742.47;5055349;28;20538;-81
2023/06/03 08:22:54;;;;;;;9.37;7.37;;;;;;;22.06;72.21;94748.91;5055446;28;20937;-82
2023/06/03 08:25:20;;;;;;;7.13;6.43;;;;;;;22.27;74.16;94742.56;5055776;28;20511;-83
2023/06/03 08:27:49;;;;;;;7.30;6.20;;;;;;;22.46;74.83;94741.72;5055272;28;20485;-82
2023/06/03 08:30:16;;;;;;;27.07;7.20;;;;;;;22.81;72.82;94742.31;5020623;28;20537;-82
2023/06/03 08:32:44;;;;;;;7.90;7.10;;;;;;;23.13;72.33;94745.94;5055588;28;20449;-82
2023/06/03 08:35:12;;;;;;;9.57;8.13;;;;;;;23.53;71.82;94737.75;5055379;28;20454;-82
2023/06/03 08:37:39;;;;;;;8.60;6.73;;;;;;;23.90;70.14;94746.84;5055455;28;20460;-81
2023/06/03 08:40:09;;;;;;;12.53;7.07;;;;;;;24.15;67.02;94753.09;5055069;28;20860;-82
2023/06/03 08:42:40;;;;;;;9.17;7.47;;;;;;;24.16;67.00;94746.69;5055232;28;20487;-82
2023/06/03 08:45:10;;;;;;;11.20;7.23;;;;;;;24.33;65.73;94749.69;5055187;28;20535;-81
2023/06/03 08:48:01;;;;;;;11.80;7.20;;;;;;;24.26;68.32;94748.88;4987521;28;20571;-81
2023/06/03 08:50:29;;;;;;;10.30;7.77;;;;;;;24.32;67.34;94751.56;5054724;28;20827;-82
2023/06/03 08:52:57;;;;;;;11.40;7.40;;;;;;;24.41;66.43;94744.06;5054945;28;20456;-82
2023/06/03 08:55:25;;;;;;;9.03;7.50;;;;;;;24.53;66.17;94742.28;5054802;28;20855;-82
2023/06/03 08:57:57;;;;;;;14.80;7.50;;;;;;;24.60;67.53;94743.06;5054915;28;20437;-82
2023/06/03 09:00:27;;;;;;;12.83;8.07;;;;;;;24.33;64.71;94745.16;5054922;28;20456;-82
2023/06/03 09:02:54;;;;;;;14.13;8.37;;;;;;;24.29;65.58;94737.78;5054736;28;20792;-82
2023/06/03 09:05:22;;;;;;;8.50;7.50;;;;;;;24.21;65.85;94738.00;5054548;28;20448;-82
2023/06/03 09:07:49;;;;;;;7.73;6.90;;;;;;;24.13;67.27;94739.06;5053942;28;20488;-82
2023/06/03 09:10:17;;;;;;;8.73;7.83;;;;;;;24.04;65.09;94738.53;5054827;28;20445;-82
2023/06/03 09:12:45;;;;;;;10.03;8.03;;;;;;;24.09;66.45;94737.88;5055021;28;20484;-82
2023/06/03 09:15:14;;;;;;;9.70;7.93;;;;;;;24.13;66.28;94731.03;5054800;28;20536;-83
2023/06/03 09:17:42;;;;;;;9.53;6.97;;;;;;;24.18;67.40;94733.06;5054431;28;20475;-82
2023/06/03 09:20:10;;;;;;;11.20;7.97;;;;;;;24.37;67.79;94724.91;5054677;28;20492;-82
2023/06/03 09:22:38;;;;;;;6.70;6.00;;;;;;;24.46;64.97;94724.63;5054640;28;20495;-82
2023/06/03 09:25:06;;;;;;;5.67;5.10;;;;;;;24.53;62.86;94725.38;5054342;28;20478;-82
2023/06/03 09:27:33;;;;;;;5.10;4.17;;;;;;;24.42;61.70;94720.72;5019376;28;20691;-82
2023/06/03 09:30:02;;;;;;;4.80;4.20;;;;;;;24.10;60.38;94713.53;5054134;28;20438;-81
2023/06/03 09:32:30;;;;;;;5.90;5.33;;;;;;;23.92;62.09;94720.66;5054279;28;20445;-81
2023/06/03 09:34:59;;;;;;;7.33;4.33;;;;;;;23.83;62.61;94717.44;5054264;28;20478;-82
2023/06/03 09:37:26;;;;;;;4.20;3.90;;;;;;;23.97;64.07;94710.94;5035195;28;20491;-82
2023/06/03 09:39:53;;;;;;;3.90;3.50;;;;;;;24.16;63.05;94708.31;5035395;28;20453;-82
2023/06/03 09:42:20;;;;;;;4.47;4.07;;;;;;;24.32;62.83;94710.50;5018506;28;20431;-82
2023/06/03 09:44:49;;;;;;;4.20;3.90;;;;;;;24.39;61.60;94708.59;5053686;28;20907;-82
2023/06/03 09:47:16;;;;;;;3.97;3.67;;;;;;;24.54;63.52;94709.06;5054402;28;20448;-82
2023/06/03 09:50:04;;;;;;;7.90;4.47;;;;;;;24.71;62.90;94702.09;5053681;28;20489;-82
2023/06/03 09:52:32;;;;;;;4.73;4.33;;;;;;;24.89;59.62;94698.63;5053954;28;20833;-83
2023/06/03 09:55:01;;;;;;;8.13;3.73;;;;;;;25.05;59.96;94691.03;5053658;28;20858;-82
2023/06/03 09:57:28;;;;;;;4.00;3.70;;;;;;;25.07;58.08;94695.13;5053903;28;20453;-82
2023/06/03 10:00:07;;;;;;;4.60;4.20;;;;;;;25.09;56.56;94697.59;5053759;28;20446;-81
2023/06/03 10:02:35;;;;;;;3.73;3.43;;;;;;;25.16;59.24;94698.34;5019745;28;20959;-82
2023/06/03 10:05:03;;;;;;;3.60;3.30;;;;;;;25.23;57.76;94697.22;5053914;28;21016;-82
2023/06/03 10:07:30;;;;;;;4.47;4.10;;;;;;;25.25;55.75;94697.00;5053347;28;20442;-82
2023/06/03 10:10:04;;;;;;;4.37;3.97;;;;;;;25.06;54.97;94681.91;5053524;28;20992;-82
2023/06/03 10:12:33;;;;;;;3.70;3.40;;;;;;;25.09;56.02;94684.16;5053686;28;20458;-82
2023/06/03 10:15:00;;;;;;;6.33;4.23;;;;;;;25.16;56.06;94688.44;5053195;28;20483;-82
2023/06/03 10:17:27;;;;;;;4.00;3.70;;;;;;;25.24;54.65;94680.06;5053261;28;20936;-82
2023/06/03 10:19:54;;;;;;;5.40;3.90;;;;;;;25.23;52.41;94678.41;5051930;28;20456;-81
2023/06/03 10:22:26;;;;;;;4.10;3.20;;;;;;;25.25;53.27;94675.50;5018165;28;20438;-82
2023/06/03 10:24:56;;;;;;;4.30;3.50;;;;;;;25.18;51.93;94677.47;5053252;28;20450;-81
2023/06/03 10:27:23;;;;;;;3.70;3.40;;;;;;;25.17;52.43;94684.69;5053226;28;20537;-82
2023/06/03 10:29:53;;;;;;;5.87;4.30;;;;;;;25.12;52.12;94686.38;5052965;28;20870;-82
2023/06/03 10:32:21;;;;;;;3.53;3.27;;;;;;;25.04;52.98;94690.19;5053055;28;20536;-82
2023/06/03 10:34:50;;;;;;;4.43;4.13;;;;;;;24.90;52.73;94683.31;5052771;28;20453;-82
2023/06/03 10:37:17;;;;;;;8.10;5.20;;;;;;;24.76;54.08;94679.94;5053206;28;20452;-82
2023/06/03 10:39:45;;;;;;;6.80;3.63;;;;;;;24.91;54.50;94679.59;5053120;28;20442;-82
2023/06/03 10:42:13;;;;;;;8.23;4.00;;;;;;;25.02;53.71;94676.19;5034111;28;20929;-82
2023/06/03 10:44:40;;;;;;;4.67;4.13;;;;;;;25.15;54.28;94680.56;5052520;28;20473;-82
2023/06/03 10:47:10;;;;;;;8.00;4.10;;;;;;;25.23;55.01;94680.28;5052963;28;20453;-82
2023/06/03 10:49:40;;;;;;;8.73;4.43;;;;;;;25.25;53.38;94676.31;5052915;28;20485;-82
2023/06/03 10:52:23;;;;;;;4.40;3.60;;;;;;;25.20;52.63;94675.38;5052826;28;20882;-82
2023/06/03 10:55:01;;;;;;;4.83;4.33;;;;;;;25.01;53.77;94674.53;5052765;28;20441;-82
2023/06/03 10:57:37;;;;;;;4.13;3.37;;;;;;;25.09;55.28;94671.53;5052676;28;20453;-82
2023/06/03 11:00:05;;;;;;;5.73;4.07;;;;;;;25.15;53.52;94670.63;5052759;28;20532;-82
2023/06/03 11:03:04;;;;;;;6.67;3.77;;;;;;;25.26;51.99;94674.44;5052842;28;20493;-82
2023/06/03 11:05:30;;;;;;;8.03;3.73;;;;;;;25.12;52.44;94675.66;5052381;28;20483;-82
2023/06/03 11:07:57;;;;;;;4.67;4.27;;;;;;;24.79;51.38;94666.06;5052574;28;20479;-81
2023/06/03 11:10:44;;;;;;;4.27;3.87;;;;;;;24.87;53.63;94671.16;5052675;28;20835;-82
2023/06/03 11:13:32;;;;;;;4.73;4.20;;;;;;;24.96;52.18;94672.50;5052460;28;20458;-82
2023/06/03 11:16:00;;;;;;;10.30;4.97;;;;;;;25.13;54.66;94667.38;5052258;28;20499;-82
2023/06/03 11:18:28;;;;;;;6.57;4.80;;;;;;;24.91;52.00;94671.53;5052256;28;20453;-82
2023/06/03 11:20:54;;;;;;;5.13;4.63;;;;;;;24.88;54.73;94670.13;5052341;28;20452;-82
2023/06/03 11:23:44;;;;;;;4.60;3.93;;;;;;;24.82;53.95;94672.84;5052199;28;20821;-82
2023/06/03 11:26:36;;;;;;;7.33;5.33;;;;;;;24.60;52.45;94659.06;5052426;28;20442;-82
2023/06/03 11:29:05;;;;;;;4.93;4.43;;;;;;;24.73;54.21;94656.25;5052250;28;20543;-82
2023/06/03 11:31:32;;;;;;;4.97;4.47;;;;;;;24.77;54.28;94659.28;5051713;28;21007;-82
2023/06/03 11:34:22;;;;;;;8.60;3.83;;;;;;;24.51;53.06;94660.38;5052291;28;20464;-82
2023/06/03 11:36:52;;;;;;;5.03;4.37;;;;;;;24.58;53.75;94655.78;5051917;28;20549;-82
2023/06/03 11:39:20;;;;;;;5.37;4.87;;;;;;;24.70;55.42;94660.19;5051918;28;20491;-82